createdAt,value
2022-08-24T00:04:56.703Z,19.63
2022-08-24T00:10:01.002Z,19.57
2022-08-24T00:15:05.802Z,19.39
2022-08-24T00:20:11.378Z,19.14
2022-08-24T00:25:17.306Z,18.87
2022-08-24T00:30:21.633Z,18.57
2022-08-24T00:35:24.945Z,18.48
2022-08-24T00:40:44.229Z,18.35
2022-08-24T00:45:52.727Z,18.30
2022-08-24T00:50:59.662Z,18.27
2022-08-24T00:56:07.886Z,18.05
2022-08-24T01:01:13.817Z,18.12
2022-08-24T01:06:16.957Z,18.04
2022-08-24T01:11:24.897Z,17.75
2022-08-24T01:16:45.091Z,17.57
2022-08-24T01:21:54.263Z,17.55
2022-08-24T01:26:59.649Z,17.28
2022-08-24T01:32:02.507Z,17.27
2022-08-24T01:37:08.639Z,17.22
2022-08-24T01:42:14.353Z,17.03
2022-08-24T01:47:18.353Z,16.96
2022-08-24T01:52:23.751Z,16.98
2022-08-24T01:57:28.328Z,16.92
2022-08-24T02:02:32.846Z,16.86
2022-08-24T02:07:35.674Z,16.82
2022-08-24T02:12:42.494Z,16.63
2022-08-24T02:17:45.311Z,16.47
2022-08-24T02:22:48.677Z,16.40
2022-08-24T02:27:53.867Z,16.25
2022-08-24T02:32:56.654Z,16.09
2022-08-24T02:37:59.870Z,16.02
2022-08-24T02:43:04.547Z,16.08
2022-08-24T02:48:07.523Z,15.97
2022-08-24T02:53:10.472Z,15.88
2022-08-24T02:58:15.783Z,15.82
2022-08-24T03:03:18.597Z,15.76
2022-08-24T03:08:21.410Z,15.62
2022-08-24T03:13:26.642Z,15.60
2022-08-24T03:18:29.570Z,15.47
2022-08-24T03:23:34.705Z,15.31
2022-08-24T03:28:39.416Z,15.31
2022-08-24T03:33:42.251Z,15.34
2022-08-24T03:38:45.311Z,15.31
2022-08-24T03:43:49.764Z,15.21
2022-08-24T03:48:52.568Z,15.16
2022-08-24T03:53:58.573Z,15.13
2022-08-24T03:59:02.745Z,15.07
2022-08-24T04:04:06.522Z,14.98
2022-08-24T04:09:09.362Z,14.77
2022-08-24T04:14:23.680Z,14.75
2022-08-24T04:19:30.452Z,14.77
2022-08-24T04:24:33.217Z,14.63
2022-08-24T04:29:37.376Z,14.61
2022-08-24T04:34:40.153Z,14.52
2022-08-24T04:39:43.219Z,14.39
2022-08-24T04:44:47.433Z,14.48
2022-08-24T04:49:50.185Z,14.42
2022-08-24T04:54:52.957Z,14.45
2022-08-24T04:59:59.164Z,14.46
2022-08-24T05:05:02.084Z,14.47
2022-08-24T05:10:07.487Z,14.51
2022-08-24T05:15:13.542Z,14.50
2022-08-24T05:20:16.325Z,14.69
2022-08-24T05:25:19.346Z,14.83
2022-08-24T05:30:23.567Z,14.82
2022-08-24T05:35:26.389Z,14.98
2022-08-24T05:40:33.255Z,15.08
2022-08-24T05:45:37.698Z,15.07
2022-08-24T05:50:40.490Z,15.18
2022-08-24T05:55:43.296Z,15.40
2022-08-24T06:00:49.610Z,15.58
2022-08-24T06:05:53.095Z,15.75
2022-08-24T06:10:55.925Z,15.92
2022-08-24T06:16:21.551Z,16.01
2022-08-24T06:21:28.453Z,16.13
2022-08-24T06:26:50.278Z,16.33
2022-08-24T06:31:56.127Z,16.50
2022-08-24T06:36:59.108Z,16.67
2022-08-24T06:42:01.956Z,16.84
2022-08-24T06:47:06.552Z,17.08
2022-08-24T06:52:10.981Z,17.27
2022-08-24T06:57:13.779Z,17.42
2022-08-24T07:02:19.406Z,17.68
2022-08-24T07:07:22.223Z,17.83
2022-08-24T07:12:25.426Z,18.05
2022-08-24T07:17:29.864Z,18.29
2022-08-24T07:22:32.651Z,18.58
2022-08-24T07:27:35.466Z,18.75
2022-08-24T07:32:39.637Z,18.93
2022-08-24T07:37:42.574Z,19.07
2022-08-24T07:42:49.024Z,19.24
2022-08-24T07:47:55.858Z,19.44
2022-08-24T07:52:58.974Z,19.67
2022-08-24T07:58:02.092Z,19.92
2022-08-24T08:03:06.531Z,20.14
2022-08-24T08:08:09.558Z,20.26
2022-08-24T08:13:12.367Z,20.40
2022-08-24T08:18:17.038Z,20.49
2022-08-24T08:23:37.631Z,20.54
2022-08-24T08:28:42.627Z,20.65
2022-08-24T08:33:47.004Z,20.86
2022-08-24T08:38:51.038Z,21.05
2022-08-24T08:44:01.980Z,21.23
2022-08-24T08:49:35.534Z,21.43
2022-08-24T08:54:56.354Z,21.61
2022-08-24T09:00:17.737Z,21.66
2022-08-24T09:05:48.622Z,21.85
2022-08-24T09:10:58.041Z,22.12
2022-08-24T09:16:22.645Z,22.30
2022-08-24T09:21:39.205Z,22.49
2022-08-24T09:26:57.158Z,22.53
2022-08-24T09:32:23.190Z,22.58
2022-08-24T09:37:35.371Z,22.63
2022-08-24T09:43:06.222Z,22.75
2022-08-24T09:48:53.263Z,23.03
2022-08-24T09:54:28.644Z,23.19
2022-08-24T09:59:58.094Z,23.32
2022-08-24T10:05:10.670Z,23.38
2022-08-24T10:10:28.494Z,23.50
2022-08-24T10:15:42.282Z,23.68
2022-08-24T10:21:00.250Z,23.85
2022-08-24T10:26:09.382Z,23.88
2022-08-24T10:31:19.994Z,23.79
2022-08-24T10:36:57.220Z,23.74
2022-08-24T10:42:51.847Z,23.99
2022-08-24T10:48:13.554Z,24.28
2022-08-24T10:53:24.088Z,24.48
2022-08-24T10:58:50.909Z,24.58
2022-08-24T11:03:59.901Z,24.68
2022-08-24T11:09:08.445Z,24.68
2022-08-24T11:14:25.673Z,24.80
2022-08-24T11:19:35.288Z,24.99
2022-08-24T11:24:44.834Z,25.27
2022-08-24T11:30:06.470Z,25.45
2022-08-24T11:35:21.053Z,25.74
2022-08-24T11:40:29.213Z,25.92
2022-08-24T11:45:37.865Z,26.13
2022-08-24T11:50:49.425Z,26.18
2022-08-24T11:56:00.367Z,26.19
2022-08-24T12:01:10.085Z,26.49
2022-08-24T12:06:24.600Z,26.59
2022-08-24T12:11:41.836Z,26.80
2022-08-24T12:16:52.937Z,26.86
2022-08-24T12:22:00.460Z,26.70
2022-08-24T12:27:07.885Z,27.04
2022-08-24T12:32:16.101Z,27.14
2022-08-24T12:37:25.211Z,27.04
2022-08-24T12:42:35.080Z,27.15
2022-08-24T12:47:46.700Z,27.19
2022-08-24T12:53:19.384Z,27.25
2022-08-24T12:58:54.403Z,27.53
2022-08-24T13:04:06.878Z,27.78
2022-08-24T13:09:18.107Z,28.06
2022-08-24T13:14:23.362Z,28.10
2022-08-24T13:19:36.413Z,28.07
2022-08-24T13:24:44.741Z,28.24
2022-08-24T13:29:55.468Z,28.35
2022-08-24T13:34:59.710Z,28.37
2022-08-24T13:40:14.925Z,28.25
2022-08-24T13:45:34.146Z,28.10
2022-08-24T13:50:47.586Z,28.18
2022-08-24T13:55:53.625Z,28.36
2022-08-24T14:01:03.835Z,28.60
2022-08-24T14:06:23.003Z,28.66
2022-08-24T14:11:45.562Z,28.39
2022-08-24T14:17:21.683Z,28.45
2022-08-24T14:22:35.135Z,28.74
2022-08-24T14:27:42.541Z,28.83
2022-08-24T14:33:04.152Z,29.57
2022-08-24T14:38:23.445Z,30.00
2022-08-24T14:43:35.702Z,30.11
2022-08-24T14:48:48.740Z,30.40
2022-08-24T14:54:02.115Z,30.74
2022-08-24T14:59:13.061Z,31.85
2022-08-24T15:04:43.849Z,32.78
2022-08-24T15:09:47.013Z,33.12
2022-08-24T15:14:55.734Z,33.58
2022-08-24T15:20:04.349Z,34.00
2022-08-24T15:25:12.566Z,33.56
2022-08-24T15:30:27.317Z,33.03
2022-08-24T15:35:33.039Z,32.81
2022-08-24T15:40:35.857Z,33.34
2022-08-24T15:45:49.681Z,33.81
2022-08-24T15:50:55.816Z,34.29
2022-08-24T15:55:58.982Z,34.69
2022-08-24T16:01:39.579Z,34.87
2022-08-24T16:06:45.260Z,34.93
2022-08-24T16:11:59.424Z,35.27
2022-08-24T16:17:31.301Z,35.00
2022-08-24T16:22:37.845Z,34.44
2022-08-24T16:27:56.667Z,34.41
2022-08-24T16:33:05.946Z,34.49
2022-08-24T16:38:08.993Z,34.45
2022-08-24T16:43:11.841Z,34.61
2022-08-24T16:48:16.247Z,34.50
2022-08-24T16:53:19.087Z,34.32
2022-08-24T16:58:24.086Z,34.06
2022-08-24T17:03:28.982Z,33.58
2022-08-24T17:08:32.069Z,33.39
2022-08-24T17:13:50.818Z,33.49
2022-08-24T17:18:55.316Z,33.18
2022-08-24T17:23:58.093Z,32.89
2022-08-24T17:29:04.375Z,32.33
2022-08-24T17:34:09.159Z,31.47
2022-08-24T17:39:13.689Z,30.62
2022-08-24T17:44:23.665Z,29.84
2022-08-24T17:49:28.433Z,29.14
2022-08-24T17:54:31.239Z,28.52
2022-08-24T17:59:36.242Z,28.01
2022-08-24T18:04:41.318Z,27.64
2022-08-24T18:09:48.049Z,27.21
2022-08-24T18:14:51.462Z,26.81
2022-08-24T18:19:55.777Z,26.31
2022-08-24T18:24:58.565Z,25.94
2022-08-24T18:30:06.183Z,25.68
2022-08-24T18:35:10.486Z,25.40
2022-08-24T18:40:20.409Z,25.10
2022-08-24T18:45:27.514Z,24.93
2022-08-24T18:50:37.714Z,24.77
2022-08-24T18:55:46.108Z,24.54
2022-08-24T19:00:51.141Z,24.31
2022-08-24T19:05:56.429Z,24.23
2022-08-24T19:10:59.232Z,24.15
2022-08-24T19:16:02.313Z,24.16
2022-08-24T19:21:06.765Z,23.92
2022-08-24T19:26:09.546Z,23.81
2022-08-24T19:31:14.670Z,23.66
2022-08-24T19:36:19.605Z,23.39
2022-08-24T19:41:22.837Z,23.25
2022-08-24T19:46:38.622Z,23.00
2022-08-24T19:51:42.870Z,22.82
2022-08-24T19:56:45.701Z,22.60
2022-08-24T20:01:48.569Z,22.41
2022-08-24T20:06:53.299Z,22.32
2022-08-24T20:11:56.046Z,22.14
2022-08-24T20:16:59.384Z,21.97
2022-08-24T20:22:03.541Z,21.75
2022-08-24T20:27:21.532Z,21.74
2022-08-24T20:32:24.348Z,21.36
2022-08-24T20:37:31.270Z,21.18
2022-08-24T20:42:34.070Z,21.03
2022-08-24T20:47:48.462Z,21.00
2022-08-24T20:52:53.984Z,20.96
2022-08-24T20:58:00.669Z,20.95
2022-08-24T21:03:03.591Z,20.91
2022-08-24T21:08:08.331Z,20.82
2022-08-24T21:13:11.477Z,20.55
2022-08-24T21:18:14.697Z,20.27
2022-08-24T21:23:18.812Z,20.00
2022-08-24T21:28:22.331Z,19.89
2022-08-24T21:33:41.839Z,19.76
2022-08-24T21:38:46.002Z,19.62
2022-08-24T21:43:48.805Z,19.65
2022-08-24T21:48:51.623Z,19.59
2022-08-24T21:53:59.675Z,19.61
2022-08-24T21:59:02.832Z,19.49
2022-08-24T22:04:05.983Z,19.40
2022-08-24T22:09:10.361Z,19.21
2022-08-24T22:14:15.178Z,19.18
2022-08-24T22:19:18.018Z,19.09
2022-08-24T22:24:22.141Z,18.97
2022-08-24T22:29:25.122Z,18.84
2022-08-24T22:34:27.912Z,18.81
2022-08-24T22:39:32.601Z,18.84
2022-08-24T22:44:36.338Z,18.81
2022-08-24T22:49:41.406Z,18.64
2022-08-24T22:54:45.582Z,18.48
2022-08-24T22:59:48.395Z,18.40
2022-08-24T23:04:52.820Z,18.43
2022-08-24T23:09:57.071Z,18.38
2022-08-24T23:15:00.065Z,18.37
2022-08-24T23:20:06.110Z,18.34
2022-08-24T23:25:12.785Z,18.20
2022-08-24T23:30:15.763Z,18.02
2022-08-24T23:35:18.578Z,18.02
2022-08-24T23:40:22.830Z,18.00
2022-08-24T23:45:28.262Z,18.02
2022-08-24T23:50:31.635Z,18.05
2022-08-24T23:55:36.117Z,17.88
